Accueil
METAR-TAF:

METAR-TAF

Aéroports :

Tak, Thaïlande

latitude: 16-53N, longitude: 099-09E, altitude: 121 m

Observation

Le bulletin a été fait il y a 39 minutes, à 01:00 UTC
Température 30°C
Humidité 70%
Pression 1005 hPa
Visibilité 10 km ou plus
Quelques nuages à une hauteur de 2600 ft

METAR: VTPT 210100Z /////KT 9999 FEW026 30/24 Q1005 NOSIG

Heure: 08:39 (01:39 UTC)

Prévision

Le bulletin a été fait il y a 2 heures et 39 minutes, à 23:00 UTC
Prévision valable du 21 à 00 UTC au 21 à 24 UTC
Vent 5 kt de ouest/sud-ouest
Visibilité 10 km ou plus
Nuages épars à une hauteur de 2600 ft
Temporairement
du 21 à 07 UTC au 21 à 13 UTC
Quelques nuages à une hauteur de 1800 ft, Cumulonimbus.
Nuages fragmentés à une hauteur de 2400 ft
orage, pluie faible,

TAF: VTPT 202300Z 2100/2124 25005KT 9999 SCT026 TEMPO 2107/2113 -TSRA FEW018CB BKN024

Observations et prévisions météorologiques de plus de 4000 aéroports (messages METAR et TAF).

Les stations disponibles sont représentées par des disques jaunes et rouges sur la carte.

Passer la souris dessus pour voir le nom de la station.

Cliquer dessus pour voir les observations et prévisions météorologiques.

Pour changer de carte: cliquez sur les boutons verts avec une croix noire pour zoomer, sur le bouton vert avec un tiret pour effectuer un zoom arrière, ou sur les flèches vertes pour les cartes adjacentes.


METAR-TAF: